LCRA Airport Information

Runway Information
Runway 10 Length 9002 ft width 200 ft
Elevation 71 ft Threshold 0 ft Heading 108
Runway 28 Length 9002 ft Width 200 ft
Elevation 76 ft Threshold 0 ft Heading 288
Airport Frequencies
Type APP Name APP Frequency 122.1 MHZ
Type ATIS Name ATIS Frequency 28.82 MHZ
Type DIR Name DIRECTOR Frequency 122.1 MHZ
Type GND Name GND Frequency 26.1 MHZ
Type OPS Name OPS Frequency 23.405 MHZ
Type TWR Name TWR Frequency 122.1 MHZ
Airport Navaids
Type TACAN Name Akrotiri Frequency 116000 KHZ
Airport Weather Information & NOTAM
ADDS - METARS form results

(1010 UTC 17 November 2019)
Data provider http://aviationweather.gov/metar/data/
 
METAR text: LCRA 170950Z 08016KT CAVOK 26/12 Q1017 NOSIG
Conditions at: LCRA (AKROTIRI (RAF) , CY) observed 0950 UTC 17 November 2019
Temperature: 26.0°C (79°F)
Dewpoint: 12.0°C (54°F) [RH = 42%]
Pressure (altimeter): 30.03 inches Hg (1017.0 mb)
Winds: from the E (80 degrees) at 18 MPH (16 knots; 8.2 m/s)
Visibility: 6 or more miles (10+ km)
Ceiling: ceiling and visibility are OK
Clouds: unknown
Weather: no significant weather observed at this time

METAR text: LCRA 170920Z 08014KT CAVOK 26/10 Q1017 NOSIG
Conditions at: LCRA (AKROTIRI (RAF) , CY) observed 0920 UTC 17 November 2019
Temperature: 26.0°C (79°F)
Dewpoint: 10.0°C (50°F) [RH = 37%]
Pressure (altimeter): 30.03 inches Hg (1017.0 mb)
Winds: from the E (80 degrees) at 16 MPH (14 knots; 7.2 m/s)
Visibility: 6 or more miles (10+ km)
Ceiling: ceiling and visibility are OK
Clouds: unknown
Weather: no significant weather observed at this time

Forecast for: LCRA (AKROTIRI (RAF) , CY)
Text: TAF LCRA 170719Z 1709/1803 07017KT CAVOK
Forecast period: 0900 to 1800 UTC 17 November 2019
Forecast type: FROM: standard forecast or significant change
Winds: from the ENE (70 degrees) at 20 MPH (17 knots; 8.7 m/s)
Visibility: 6 or more miles 10+ km)
Ceiling: unknown
Clouds: missing
Weather: NSW  (no significant weather)
Text: BECMG 1718/1721 04010KT
Forecast period: 1800 UTC 17 November 2019 to 0300 UTC 18 November 2019
Forecast type: BECOMING: Conditions expected to become as follows by 2100 UTC 17 November 2019
Winds: from the NE (40 degrees) at 12 MPH (10 knots; 5.1 m/s)
Visibility: 6 or more miles 10+ km)
Ceiling: unknown
Clouds: missing
Weather: NSW  (no significant weather)